Hlavní strana
METAR-TAF:

METAR-TAF

Letiště :

Damašek, Sýrie

zeměpisná šířka: 33-25N, zeměpisná délka: 036-31E, výška: 608 m

Aktuální stav počasí

Zpráva byla vytvořena před 16 minutami, v 23:00 UTC
Západoseverozápadní vítr 2 kt
Teplota 4°C
Vlhkost vzduchu 65%
Tlak 1019 hPa
Viditelnost 10 km a více
Žádná oblačnost pod 1500 m, nevyskytují se cumulonimby.

METAR: OSDI 222300Z 30002KT CAVOK 04/M02 Q1019

Čas: 01:16 (23:16 UTC)

Předpověď počasí

Zpráva byla vytvořena před 13 hodinami a 16 minutami, v 10:00 UTC
Předpověď platná od 22 v 12 UTC do 23 v 18 UTC
Východoseverovýchodní vítr 12 kt
Viditelnost 10 km a více
Skoro jasno ve výšce 3000 ft
Dočasný
od 22 v 21 UTC do 23 v 08 UTC
vítr z různých směrů 3 kt
Viditelnost 10 km a více
Žádná oblačnost pod 1500 m, nevyskytují se cumulonimby.

TAF: OSDI 221000Z 2212/2318 06012KT 9999 FEW030 TEMPO 2221/2308 VRB03KT CAVOK

Stav a předpovědi počasí z více než 4 000 letišť (zprávy METAR a TAF).

Červené a žluté tečky na mapě představují dostupné meteorologické stanice.

Když kurzor umístíte na tečku, zobrazí se název stanice.

Pak kliknutím zobrazíte stav a předpověď počasí.

Chcete-li změnit mapu, kliknutím na zelené tlačítko se znaménkem +mapu přiblížíte, kliknutím na zelené tlačítko se znaménkem – mapu oddálíte a kliknutím na zelené šipky přejdete na sousední mapy.


METAR-TAF: